sensor_id;sensor_type;location;lat;lon;timestamp;P1;durP1;ratioP1;P2;durP2;ratioP2
41261;SDS011;29629;52.532;13.352;2022-08-01T00:01:30;18.90;;;5.85;;
41261;SDS011;29629;52.532;13.352;2022-08-01T00:03:57;15.13;;;5.47;;
41261;SDS011;29629;52.532;13.352;2022-08-01T00:06:25;16.42;;;5.45;;
41261;SDS011;29629;52.532;13.352;2022-08-01T00:08:52;17.25;;;5.95;;
41261;SDS011;29629;52.532;13.352;2022-08-01T00:11:18;18.35;;;5.70;;
41261;SDS011;29629;52.532;13.352;2022-08-01T00:13:45;14.15;;;5.28;;
41261;SDS011;29629;52.532;13.352;2022-08-01T00:16:12;10.57;;;4.65;;
41261;SDS011;29629;52.532;13.352;2022-08-01T00:18:39;14.65;;;5.65;;
41261;SDS011;29629;52.532;13.352;2022-08-01T00:21:06;15.73;;;6.15;;
41261;SDS011;29629;52.532;13.352;2022-08-01T00:23:34;17.00;;;5.40;;
41261;SDS011;29629;52.532;13.352;2022-08-01T00:26:01;20.55;;;5.70;;
41261;SDS011;29629;52.532;13.352;2022-08-01T00:28:27;16.90;;;5.72;;
41261;SDS011;29629;52.532;13.352;2022-08-01T00:30:54;18.67;;;6.05;;
41261;SDS011;29629;52.532;13.352;2022-08-01T00:33:21;16.00;;;4.88;;
41261;SDS011;29629;52.532;13.352;2022-08-01T00:35:48;16.98;;;5.60;;
41261;SDS011;29629;52.532;13.352;2022-08-01T00:38:15;13.02;;;4.95;;
41261;SDS011;29629;52.532;13.352;2022-08-01T00:40:43;14.63;;;5.32;;
41261;SDS011;29629;52.532;13.352;2022-08-01T00:43:10;10.40;;;4.53;;
41261;SDS011;29629;52.532;13.352;2022-08-01T00:45:36;17.77;;;6.13;;
41261;SDS011;29629;52.532;13.352;2022-08-01T00:48:03;13.90;;;4.82;;
41261;SDS011;29629;52.532;13.352;2022-08-01T00:50:30;12.88;;;5.07;;
41261;SDS011;29629;52.532;13.352;2022-08-01T00:52:58;19.80;;;5.93;;
41261;SDS011;29629;52.532;13.352;2022-08-01T00:55:26;7.03;;;3.88;;
41261;SDS011;29629;52.532;13.352;2022-08-01T00:57:54;12.75;;;4.15;;
41261;SDS011;29629;52.532;13.352;2022-08-01T01:00:22;17.92;;;5.45;;
41261;SDS011;29629;52.532;13.352;2022-08-01T01:02:49;20.10;;;5.47;;
41261;SDS011;29629;52.532;13.352;2022-08-01T01:05:16;22.98;;;6.00;;
41261;SDS011;29629;52.532;13.352;2022-08-01T01:07:44;11.43;;;4.82;;
41261;SDS011;29629;52.532;13.352;2022-08-01T01:10:17;15.98;;;4.57;;
41261;SDS011;29629;52.532;13.352;2022-08-01T01:12:50;15.52;;;4.90;;
41261;SDS011;29629;52.532;13.352;2022-08-01T01:15:23;16.60;;;5.22;;
41261;SDS011;29629;52.532;13.352;2022-08-01T01:17:58;14.15;;;4.60;;
41261;SDS011;29629;52.532;13.352;2022-08-01T01:20:30;11.35;;;4.68;;
41261;SDS011;29629;52.532;13.352;2022-08-01T01:23:09;11.77;;;4.75;;
41261;SDS011;29629;52.532;13.352;2022-08-01T01:25:51;20.20;;;5.53;;
41261;SDS011;29629;52.532;13.352;2022-08-01T01:28:33;17.27;;;5.15;;
41261;SDS011;29629;52.532;13.352;2022-08-01T01:31:08;17.00;;;5.05;;
41261;SDS011;29629;52.532;13.352;2022-08-01T01:33:38;14.20;;;4.65;;
41261;SDS011;29629;52.532;13.352;2022-08-01T01:36:07;16.15;;;5.10;;
41261;SDS011;29629;52.532;13.352;2022-08-01T01:38:36;13.48;;;4.55;;
41261;SDS011;29629;52.532;13.352;2022-08-01T01:41:07;12.45;;;4.30;;
41261;SDS011;29629;52.532;13.352;2022-08-01T01:43:36;13.35;;;4.80;;
41261;SDS011;29629;52.532;13.352;2022-08-01T01:46:04;10.07;;;3.65;;
41261;SDS011;29629;52.532;13.352;2022-08-01T01:48:34;9.63;;;3.83;;
41261;SDS011;29629;52.532;13.352;2022-08-01T01:51:03;7.82;;;3.65;;
41261;SDS011;29629;52.532;13.352;2022-08-01T01:53:32;14.27;;;5.53;;
41261;SDS011;29629;52.532;13.352;2022-08-01T01:56:01;18.00;;;5.22;;
41261;SDS011;29629;52.532;13.352;2022-08-01T01:58:29;15.32;;;4.75;;
41261;SDS011;29629;52.532;13.352;2022-08-01T02:00:59;14.52;;;4.97;;
41261;SDS011;29629;52.532;13.352;2022-08-01T02:03:28;11.25;;;4.68;;
41261;SDS011;29629;52.532;13.352;2022-08-01T02:05:57;14.88;;;5.50;;
41261;SDS011;29629;52.532;13.352;2022-08-01T02:08:26;17.60;;;6.35;;
41261;SDS011;29629;52.532;13.352;2022-08-01T02:10:55;16.85;;;6.00;;
41261;SDS011;29629;52.532;13.352;2022-08-01T02:13:46;11.70;;;5.45;;
41261;SDS011;29629;52.532;13.352;2022-08-01T02:16:17;16.65;;;5.70;;
41261;SDS011;29629;52.532;13.352;2022-08-01T02:18:48;15.02;;;5.22;;
41261;SDS011;29629;52.532;13.352;2022-08-01T02:21:16;15.23;;;4.97;;
41261;SDS011;29629;52.532;13.352;2022-08-01T02:23:47;12.23;;;4.28;;
41261;SDS011;29629;52.532;13.352;2022-08-01T02:26:15;12.98;;;5.20;;
41261;SDS011;29629;52.532;13.352;2022-08-01T02:28:45;12.73;;;5.10;;
41261;SDS011;29629;52.532;13.352;2022-08-01T02:31:17;13.02;;;5.05;;
41261;SDS011;29629;52.532;13.352;2022-08-01T02:33:51;21.55;;;10.95;;
41261;SDS011;29629;52.532;13.352;2022-08-01T02:36:23;22.83;;;12.85;;
41261;SDS011;29629;52.532;13.352;2022-08-01T02:38:54;15.77;;;10.85;;
41261;SDS011;29629;52.532;13.352;2022-08-01T02:41:23;17.00;;;12.52;;
41261;SDS011;29629;52.532;13.352;2022-08-01T02:43:53;12.27;;;9.90;;
41261;SDS011;29629;52.532;13.352;2022-08-01T02:46:32;20.50;;;13.30;;
41261;SDS011;29629;52.532;13.352;2022-08-01T02:49:04;12.07;;;10.80;;
41261;SDS011;29629;52.532;13.352;2022-08-01T02:51:33;18.67;;;9.70;;
41261;SDS011;29629;52.532;13.352;2022-08-01T02:54:02;17.38;;;14.75;;
41261;SDS011;29629;52.532;13.352;2022-08-01T02:56:33;20.65;;;14.15;;
41261;SDS011;29629;52.532;13.352;2022-08-01T02:59:03;13.23;;;11.05;;
41261;SDS011;29629;52.532;13.352;2022-08-01T03:01:32;16.23;;;9.77;;
41261;SDS011;29629;52.532;13.352;2022-08-01T03:04:00;16.67;;;10.27;;
41261;SDS011;29629;52.532;13.352;2022-08-01T03:06:29;20.98;;;11.30;;
41261;SDS011;29629;52.532;13.352;2022-08-01T03:08:57;17.40;;;10.65;;
41261;SDS011;29629;52.532;13.352;2022-08-01T03:11:26;20.00;;;9.43;;
41261;SDS011;29629;52.532;13.352;2022-08-01T03:13:53;19.90;;;10.43;;
41261;SDS011;29629;52.532;13.352;2022-08-01T03:16:22;16.40;;;11.18;;
41261;SDS011;29629;52.532;13.352;2022-08-01T03:18:51;19.23;;;11.77;;
41261;SDS011;29629;52.532;13.352;2022-08-01T03:21:21;19.08;;;13.07;;
41261;SDS011;29629;52.532;13.352;2022-08-01T03:23:50;17.15;;;12.00;;
41261;SDS011;29629;52.532;13.352;2022-08-01T03:26:22;20.70;;;12.30;;
41261;SDS011;29629;52.532;13.352;2022-08-01T03:28:52;13.75;;;9.70;;
41261;SDS011;29629;52.532;13.352;2022-08-01T03:31:22;10.25;;;9.15;;
41261;SDS011;29629;52.532;13.352;2022-08-01T03:33:51;16.33;;;10.82;;
41261;SDS011;29629;52.532;13.352;2022-08-01T03:36:18;17.00;;;11.80;;
41261;SDS011;29629;52.532;13.352;2022-08-01T03:38:52;15.80;;;10.13;;
41261;SDS011;29629;52.532;13.352;2022-08-01T03:41:23;20.63;;;10.95;;
41261;SDS011;29629;52.532;13.352;2022-08-01T03:43:55;19.63;;;11.57;;
41261;SDS011;29629;52.532;13.352;2022-08-01T03:46:26;16.23;;;10.82;;
41261;SDS011;29629;52.532;13.352;2022-08-01T03:48:57;14.30;;;10.18;;
41261;SDS011;29629;52.532;13.352;2022-08-01T03:51:29;10.73;;;9.88;;
41261;SDS011;29629;52.532;13.352;2022-08-01T03:53:59;12.70;;;11.60;;
41261;SDS011;29629;52.532;13.352;2022-08-01T03:56:27;21.80;;;11.25;;
41261;SDS011;29629;52.532;13.352;2022-08-01T03:58:56;15.88;;;10.40;;
41261;SDS011;29629;52.532;13.352;2022-08-01T04:01:25;18.02;;;9.35;;
41261;SDS011;29629;52.532;13.352;2022-08-01T04:03:53;20.17;;;9.23;;
41261;SDS011;29629;52.532;13.352;2022-08-01T04:06:20;21.17;;;10.57;;
41261;SDS011;29629;52.532;13.352;2022-08-01T04:08:47;17.05;;;9.32;;
41261;SDS011;29629;52.532;13.352;2022-08-01T04:11:22;18.27;;;10.43;;
41261;SDS011;29629;52.532;13.352;2022-08-01T04:13:50;12.55;;;10.40;;
41261;SDS011;29629;52.532;13.352;2022-08-01T04:16:17;24.70;;;12.23;;
41261;SDS011;29629;52.532;13.352;2022-08-01T04:18:44;13.35;;;10.02;;
41261;SDS011;29629;52.532;13.352;2022-08-01T04:21:11;22.65;;;10.15;;
41261;SDS011;29629;52.532;13.352;2022-08-01T04:23:39;10.43;;;8.25;;
41261;SDS011;29629;52.532;13.352;2022-08-01T04:26:08;22.80;;;8.65;;
41261;SDS011;29629;52.532;13.352;2022-08-01T04:28:38;20.25;;;9.23;;
41261;SDS011;29629;52.532;13.352;2022-08-01T04:31:07;16.98;;;10.95;;
41261;SDS011;29629;52.532;13.352;2022-08-01T04:33:36;18.92;;;8.55;;
41261;SDS011;29629;52.532;13.352;2022-08-01T04:36:06;15.10;;;7.93;;
41261;SDS011;29629;52.532;13.352;2022-08-01T04:38:36;19.35;;;8.43;;
41261;SDS011;29629;52.532;13.352;2022-08-01T04:41:04;25.73;;;9.75;;
41261;SDS011;29629;52.532;13.352;2022-08-01T04:43:33;22.52;;;11.20;;
41261;SDS011;29629;52.532;13.352;2022-08-01T04:46:01;19.05;;;12.63;;
41261;SDS011;29629;52.532;13.352;2022-08-01T04:48:29;24.92;;;10.95;;
41261;SDS011;29629;52.532;13.352;2022-08-01T04:50:58;24.75;;;12.70;;
41261;SDS011;29629;52.532;13.352;2022-08-01T04:53:25;22.25;;;11.77;;
41261;SDS011;29629;52.532;13.352;2022-08-01T04:55:52;20.80;;;10.02;;
41261;SDS011;29629;52.532;13.352;2022-08-01T04:58:20;21.40;;;10.75;;
41261;SDS011;29629;52.532;13.352;2022-08-01T05:00:47;26.02;;;12.55;;
41261;SDS011;29629;52.532;13.352;2022-08-01T05:03:15;19.15;;;10.98;;
41261;SDS011;29629;52.532;13.352;2022-08-01T05:05:42;21.63;;;9.93;;
41261;SDS011;29629;52.532;13.352;2022-08-01T05:08:09;22.40;;;10.43;;
41261;SDS011;29629;52.532;13.352;2022-08-01T05:10:36;16.05;;;8.15;;
41261;SDS011;29629;52.532;13.352;2022-08-01T05:13:03;23.40;;;9.70;;
41261;SDS011;29629;52.532;13.352;2022-08-01T05:15:31;21.65;;;9.43;;
41261;SDS011;29629;52.532;13.352;2022-08-01T05:17:58;26.10;;;10.38;;
41261;SDS011;29629;52.532;13.352;2022-08-01T05:20:26;19.88;;;8.07;;
41261;SDS011;29629;52.532;13.352;2022-08-01T05:22:53;27.20;;;11.65;;
41261;SDS011;29629;52.532;13.352;2022-08-01T05:25:20;25.20;;;11.88;;
41261;SDS011;29629;52.532;13.352;2022-08-01T05:27:48;13.40;;;8.77;;
41261;SDS011;29629;52.532;13.352;2022-08-01T05:30:15;22.02;;;8.75;;
41261;SDS011;29629;52.532;13.352;2022-08-01T05:32:43;17.42;;;8.13;;
41261;SDS011;29629;52.532;13.352;2022-08-01T05:35:10;22.30;;;9.35;;
41261;SDS011;29629;52.532;13.352;2022-08-01T05:37:38;19.88;;;7.72;;
41261;SDS011;29629;52.532;13.352;2022-08-01T05:40:05;14.52;;;7.50;;
41261;SDS011;29629;52.532;13.352;2022-08-01T05:42:33;19.48;;;7.60;;
41261;SDS011;29629;52.532;13.352;2022-08-01T05:45:00;17.80;;;6.68;;
41261;SDS011;29629;52.532;13.352;2022-08-01T05:47:26;19.63;;;7.13;;
41261;SDS011;29629;52.532;13.352;2022-08-01T05:49:53;16.42;;;5.78;;
41261;SDS011;29629;52.532;13.352;2022-08-01T05:52:20;18.75;;;6.68;;
41261;SDS011;29629;52.532;13.352;2022-08-01T05:54:48;17.75;;;6.82;;
41261;SDS011;29629;52.532;13.352;2022-08-01T05:57:15;20.70;;;6.88;;
41261;SDS011;29629;52.532;13.352;2022-08-01T05:59:42;15.75;;;6.50;;
41261;SDS011;29629;52.532;13.352;2022-08-01T06:02:08;11.45;;;5.25;;
41261;SDS011;29629;52.532;13.352;2022-08-01T06:04:35;30.63;;;8.73;;
41261;SDS011;29629;52.532;13.352;2022-08-01T06:07:02;19.02;;;6.70;;
41261;SDS011;29629;52.532;13.352;2022-08-01T06:09:29;11.65;;;5.18;;
41261;SDS011;29629;52.532;13.352;2022-08-01T06:11:58;15.80;;;6.82;;
41261;SDS011;29629;52.532;13.352;2022-08-01T06:14:24;14.82;;;6.30;;
41261;SDS011;29629;52.532;13.352;2022-08-01T06:16:51;18.23;;;7.03;;
41261;SDS011;29629;52.532;13.352;2022-08-01T06:19:18;17.60;;;6.35;;
41261;SDS011;29629;52.532;13.352;2022-08-01T06:21:45;21.15;;;6.95;;
41261;SDS011;29629;52.532;13.352;2022-08-01T06:24:11;18.58;;;6.22;;
41261;SDS011;29629;52.532;13.352;2022-08-01T06:26:38;16.35;;;5.45;;
41261;SDS011;29629;52.532;13.352;2022-08-01T06:29:06;17.80;;;5.47;;
41261;SDS011;29629;52.532;13.352;2022-08-01T06:31:33;17.75;;;5.60;;
41261;SDS011;29629;52.532;13.352;2022-08-01T06:34:00;14.60;;;5.03;;
41261;SDS011;29629;52.532;13.352;2022-08-01T06:36:27;8.93;;;3.58;;
41261;SDS011;29629;52.532;13.352;2022-08-01T06:38:54;17.92;;;5.65;;
41261;SDS011;29629;52.532;13.352;2022-08-01T06:41:20;21.20;;;5.50;;
41261;SDS011;29629;52.532;13.352;2022-08-01T06:43:47;14.80;;;4.47;;
41261;SDS011;29629;52.532;13.352;2022-08-01T06:46:15;14.00;;;4.32;;
41261;SDS011;29629;52.532;13.352;2022-08-01T06:48:42;14.10;;;4.65;;
41261;SDS011;29629;52.532;13.352;2022-08-01T06:51:09;17.10;;;4.47;;
41261;SDS011;29629;52.532;13.352;2022-08-01T06:53:38;16.15;;;4.55;;
41261;SDS011;29629;52.532;13.352;2022-08-01T06:56:05;17.00;;;4.55;;
41261;SDS011;29629;52.532;13.352;2022-08-01T06:58:33;16.65;;;5.05;;
41261;SDS011;29629;52.532;13.352;2022-08-01T07:01:00;12.13;;;5.13;;
41261;SDS011;29629;52.532;13.352;2022-08-01T07:03:32;12.77;;;4.13;;
41261;SDS011;29629;52.532;13.352;2022-08-01T07:05:59;16.95;;;5.07;;
41261;SDS011;29629;52.532;13.352;2022-08-01T07:08:26;11.75;;;3.72;;
41261;SDS011;29629;52.532;13.352;2022-08-01T07:10:55;7.88;;;3.38;;
41261;SDS011;29629;52.532;13.352;2022-08-01T07:13:24;15.27;;;4.68;;
41261;SDS011;29629;52.532;13.352;2022-08-01T07:15:51;14.07;;;5.20;;
41261;SDS011;29629;52.532;13.352;2022-08-01T07:18:18;16.88;;;4.30;;
41261;SDS011;29629;52.532;13.352;2022-08-01T07:20:47;16.50;;;5.40;;
41261;SDS011;29629;52.532;13.352;2022-08-01T07:23:14;15.82;;;4.60;;
41261;SDS011;29629;52.532;13.352;2022-08-01T07:25:40;10.95;;;3.60;;
41261;SDS011;29629;52.532;13.352;2022-08-01T07:28:07;13.23;;;5.63;;
41261;SDS011;29629;52.532;13.352;2022-08-01T07:30:34;15.23;;;4.40;;
41261;SDS011;29629;52.532;13.352;2022-08-01T07:33:01;17.58;;;4.20;;
41261;SDS011;29629;52.532;13.352;2022-08-01T07:35:28;12.27;;;3.65;;
41261;SDS011;29629;52.532;13.352;2022-08-01T07:37:56;12.55;;;3.75;;
41261;SDS011;29629;52.532;13.352;2022-08-01T07:40:23;13.20;;;4.10;;
41261;SDS011;29629;52.532;13.352;2022-08-01T07:42:50;13.82;;;4.15;;
41261;SDS011;29629;52.532;13.352;2022-08-01T07:45:17;10.25;;;3.63;;
41261;SDS011;29629;52.532;13.352;2022-08-01T07:47:44;13.27;;;3.65;;
41261;SDS011;29629;52.532;13.352;2022-08-01T07:50:11;13.30;;;4.32;;
41261;SDS011;29629;52.532;13.352;2022-08-01T07:52:38;12.77;;;4.13;;
41261;SDS011;29629;52.532;13.352;2022-08-01T07:55:07;13.65;;;4.93;;
41261;SDS011;29629;52.532;13.352;2022-08-01T07:57:35;14.95;;;5.45;;
41261;SDS011;29629;52.532;13.352;2022-08-01T08:00:03;17.23;;;4.93;;
41261;SDS011;29629;52.532;13.352;2022-08-01T08:02:33;12.45;;;4.68;;
41261;SDS011;29629;52.532;13.352;2022-08-01T08:05:00;19.45;;;5.72;;
41261;SDS011;29629;52.532;13.352;2022-08-01T08:07:26;14.10;;;4.72;;
41261;SDS011;29629;52.532;13.352;2022-08-01T08:09:53;11.77;;;4.20;;
41261;SDS011;29629;52.532;13.352;2022-08-01T08:12:21;18.23;;;5.25;;
41261;SDS011;29629;52.532;13.352;2022-08-01T08:14:48;14.10;;;4.22;;
41261;SDS011;29629;52.532;13.352;2022-08-01T08:17:15;16.35;;;4.70;;
41261;SDS011;29629;52.532;13.352;2022-08-01T08:19:42;10.70;;;4.45;;
41261;SDS011;29629;52.532;13.352;2022-08-01T08:22:09;15.80;;;4.88;;
41261;SDS011;29629;52.532;13.352;2022-08-01T08:24:36;23.05;;;5.95;;
41261;SDS011;29629;52.532;13.352;2022-08-01T08:27:03;16.85;;;5.15;;
41261;SDS011;29629;52.532;13.352;2022-08-01T08:29:32;13.30;;;4.25;;
41261;SDS011;29629;52.532;13.352;2022-08-01T08:31:59;14.18;;;4.75;;
41261;SDS011;29629;52.532;13.352;2022-08-01T08:34:27;23.73;;;5.75;;
41261;SDS011;29629;52.532;13.352;2022-08-01T08:36:55;18.63;;;5.70;;
41261;SDS011;29629;52.532;13.352;2022-08-01T08:39:22;13.27;;;4.10;;
41261;SDS011;29629;52.532;13.352;2022-08-01T08:41:50;15.10;;;6.13;;
41261;SDS011;29629;52.532;13.352;2022-08-01T08:44:17;15.73;;;6.65;;
41261;SDS011;29629;52.532;13.352;2022-08-01T08:46:47;20.25;;;6.68;;
41261;SDS011;29629;52.532;13.352;2022-08-01T08:49:16;15.65;;;5.50;;
41261;SDS011;29629;52.532;13.352;2022-08-01T08:51:47;15.68;;;5.85;;
41261;SDS011;29629;52.532;13.352;2022-08-01T08:54:15;20.23;;;6.43;;
41261;SDS011;29629;52.532;13.352;2022-08-01T08:56:46;27.65;;;25.40;;
41261;SDS011;29629;52.532;13.352;2022-08-01T08:59:17;29.80;;;28.02;;
41261;SDS011;29629;52.532;13.352;2022-08-01T09:01:58;30.55;;;27.52;;
41261;SDS011;29629;52.532;13.352;2022-08-01T09:04:38;23.67;;;5.82;;
41261;SDS011;29629;52.532;13.352;2022-08-01T09:07:06;17.65;;;5.20;;
41261;SDS011;29629;52.532;13.352;2022-08-01T09:09:35;12.02;;;4.05;;
41261;SDS011;29629;52.532;13.352;2022-08-01T09:12:02;12.45;;;4.22;;
41261;SDS011;29629;52.532;13.352;2022-08-01T09:14:29;31.35;;;7.68;;
41261;SDS011;29629;52.532;13.352;2022-08-01T09:17:02;16.05;;;5.10;;
41261;SDS011;29629;52.532;13.352;2022-08-01T09:19:35;13.98;;;5.05;;
41261;SDS011;29629;52.532;13.352;2022-08-01T09:22:03;25.40;;;10.23;;
41261;SDS011;29629;52.532;13.352;2022-08-01T09:24:31;25.38;;;6.18;;
41261;SDS011;29629;52.532;13.352;2022-08-01T09:26:59;18.88;;;6.63;;
41261;SDS011;29629;52.532;13.352;2022-08-01T09:29:27;19.85;;;5.75;;
41261;SDS011;29629;52.532;13.352;2022-08-01T09:31:56;16.48;;;5.30;;
41261;SDS011;29629;52.532;13.352;2022-08-01T09:34:26;17.25;;;4.80;;
41261;SDS011;29629;52.532;13.352;2022-08-01T09:36:55;15.13;;;4.65;;
41261;SDS011;29629;52.532;13.352;2022-08-01T09:39:25;14.73;;;4.45;;
41261;SDS011;29629;52.532;13.352;2022-08-01T09:41:53;16.27;;;5.40;;
41261;SDS011;29629;52.532;13.352;2022-08-01T09:44:35;11.75;;;3.90;;
41261;SDS011;29629;52.532;13.352;2022-08-01T09:47:04;10.25;;;3.58;;
41261;SDS011;29629;52.532;13.352;2022-08-01T09:49:33;16.77;;;5.07;;
41261;SDS011;29629;52.532;13.352;2022-08-01T09:52:10;14.52;;;4.82;;
41261;SDS011;29629;52.532;13.352;2022-08-01T09:54:39;21.38;;;5.53;;
41261;SDS011;29629;52.532;13.352;2022-08-01T09:57:07;10.07;;;4.05;;
41261;SDS011;29629;52.532;13.352;2022-08-01T09:59:40;20.88;;;4.93;;
41261;SDS011;29629;52.532;13.352;2022-08-01T10:02:09;18.23;;;4.95;;
41261;SDS011;29629;52.532;13.352;2022-08-01T10:04:47;24.88;;;6.32;;
41261;SDS011;29629;52.532;13.352;2022-08-01T10:07:14;17.02;;;4.82;;
41261;SDS011;29629;52.532;13.352;2022-08-01T10:09:42;16.30;;;8.70;;
41261;SDS011;29629;52.532;13.352;2022-08-01T10:12:10;15.82;;;7.55;;
41261;SDS011;29629;52.532;13.352;2022-08-01T10:14:39;24.05;;;6.55;;
41261;SDS011;29629;52.532;13.352;2022-08-01T10:17:07;20.58;;;5.95;;
41261;SDS011;29629;52.532;13.352;2022-08-01T10:19:35;17.15;;;4.65;;
41261;SDS011;29629;52.532;13.352;2022-08-01T10:22:04;18.98;;;5.40;;
41261;SDS011;29629;52.532;13.352;2022-08-01T10:24:36;25.88;;;6.43;;
41261;SDS011;29629;52.532;13.352;2022-08-01T10:27:05;15.80;;;4.95;;
41261;SDS011;29629;52.532;13.352;2022-08-01T10:29:35;14.32;;;4.00;;
41261;SDS011;29629;52.532;13.352;2022-08-01T10:32:06;18.00;;;4.78;;
41261;SDS011;29629;52.532;13.352;2022-08-01T10:34:34;17.98;;;5.53;;
41261;SDS011;29629;52.532;13.352;2022-08-01T10:37:03;14.45;;;4.05;;
41261;SDS011;29629;52.532;13.352;2022-08-01T10:39:31;16.80;;;4.88;;
41261;SDS011;29629;52.532;13.352;2022-08-01T10:41:59;18.25;;;4.60;;
41261;SDS011;29629;52.532;13.352;2022-08-01T10:44:28;27.48;;;6.18;;
41261;SDS011;29629;52.532;13.352;2022-08-01T10:46:57;17.88;;;4.53;;
41261;SDS011;29629;52.532;13.352;2022-08-01T10:49:30;15.85;;;5.00;;
41261;SDS011;29629;52.532;13.352;2022-08-01T10:52:04;19.08;;;5.10;;
41261;SDS011;29629;52.532;13.352;2022-08-01T10:54:37;24.75;;;5.32;;
41261;SDS011;29629;52.532;13.352;2022-08-01T10:57:05;14.87;;;6.00;;
41261;SDS011;29629;52.532;13.352;2022-08-01T10:59:33;18.10;;;3.88;;
41261;SDS011;29629;52.532;13.352;2022-08-01T11:02:05;21.38;;;5.32;;
41261;SDS011;29629;52.532;13.352;2022-08-01T11:04:34;19.67;;;5.38;;
41261;SDS011;29629;52.532;13.352;2022-08-01T11:07:13;19.88;;;4.45;;
41261;SDS011;29629;52.532;13.352;2022-08-01T11:09:45;26.10;;;6.07;;
41261;SDS011;29629;52.532;13.352;2022-08-01T11:12:13;22.35;;;6.43;;
41261;SDS011;29629;52.532;13.352;2022-08-01T11:17:50;22.13;;;6.10;;
41261;SDS011;29629;52.532;13.352;2022-08-01T11:20:19;24.02;;;5.93;;
41261;SDS011;29629;52.532;13.352;2022-08-01T11:26:09;14.65;;;4.60;;
41261;SDS011;29629;52.532;13.352;2022-08-01T11:28:40;14.30;;;4.57;;
41261;SDS011;29629;52.532;13.352;2022-08-01T11:31:29;20.38;;;5.93;;
41261;SDS011;29629;52.532;13.352;2022-08-01T11:33:57;21.92;;;5.82;;
41261;SDS011;29629;52.532;13.352;2022-08-01T11:36:25;15.45;;;4.43;;
41261;SDS011;29629;52.532;13.352;2022-08-01T11:39:15;14.60;;;3.95;;
41261;SDS011;29629;52.532;13.352;2022-08-01T11:41:44;13.55;;;4.22;;
41261;SDS011;29629;52.532;13.352;2022-08-01T11:44:13;17.77;;;5.63;;
41261;SDS011;29629;52.532;13.352;2022-08-01T11:46:45;21.80;;;5.43;;
41261;SDS011;29629;52.532;13.352;2022-08-01T11:49:23;21.33;;;6.13;;
41261;SDS011;29629;52.532;13.352;2022-08-01T11:52:02;21.67;;;5.95;;
41261;SDS011;29629;52.532;13.352;2022-08-01T11:54:31;25.85;;;6.78;;
41261;SDS011;29629;52.532;13.352;2022-08-01T11:57:01;21.00;;;5.90;;
41261;SDS011;29629;52.532;13.352;2022-08-01T11:59:36;19.98;;;5.68;;
41261;SDS011;29629;52.532;13.352;2022-08-01T12:02:14;26.05;;;6.13;;
41261;SDS011;29629;52.532;13.352;2022-08-01T12:04:50;34.13;;;8.50;;
41261;SDS011;29629;52.532;13.352;2022-08-01T12:07:21;27.60;;;7.13;;
41261;SDS011;29629;52.532;13.352;2022-08-01T12:09:56;23.10;;;5.55;;
41261;SDS011;29629;52.532;13.352;2022-08-01T12:12:33;28.05;;;6.63;;
41261;SDS011;29629;52.532;13.352;2022-08-01T12:15:05;34.08;;;7.57;;
41261;SDS011;29629;52.532;13.352;2022-08-01T12:17:35;24.92;;;6.38;;
41261;SDS011;29629;52.532;13.352;2022-08-01T12:20:04;31.08;;;7.65;;
41261;SDS011;29629;52.532;13.352;2022-08-01T12:22:32;31.40;;;7.68;;
41261;SDS011;29629;52.532;13.352;2022-08-01T12:25:04;33.17;;;8.02;;
41261;SDS011;29629;52.532;13.352;2022-08-01T12:27:33;30.13;;;7.72;;
41261;SDS011;29629;52.532;13.352;2022-08-01T12:30:00;28.13;;;7.70;;
41261;SDS011;29629;52.532;13.352;2022-08-01T12:32:29;30.13;;;7.47;;
41261;SDS011;29629;52.532;13.352;2022-08-01T12:34:58;29.63;;;8.10;;
41261;SDS011;29629;52.532;13.352;2022-08-01T12:37:27;20.15;;;6.70;;
41261;SDS011;29629;52.532;13.352;2022-08-01T12:39:55;25.38;;;7.70;;
41261;SDS011;29629;52.532;13.352;2022-08-01T12:42:22;35.22;;;9.38;;
41261;SDS011;29629;52.532;13.352;2022-08-01T12:44:51;30.65;;;8.63;;
41261;SDS011;29629;52.532;13.352;2022-08-01T12:47:19;35.38;;;9.27;;
41261;SDS011;29629;52.532;13.352;2022-08-01T12:49:47;25.35;;;6.85;;
41261;SDS011;29629;52.532;13.352;2022-08-01T12:52:15;23.88;;;7.60;;
41261;SDS011;29629;52.532;13.352;2022-08-01T12:54:59;35.20;;;9.38;;
41261;SDS011;29629;52.532;13.352;2022-08-01T12:57:37;30.63;;;8.65;;
41261;SDS011;29629;52.532;13.352;2022-08-01T13:00:21;28.05;;;8.30;;
41261;SDS011;29629;52.532;13.352;2022-08-01T13:02:49;38.15;;;9.85;;
41261;SDS011;29629;52.532;13.352;2022-08-01T13:05:26;23.15;;;7.47;;
41261;SDS011;29629;52.532;13.352;2022-08-01T13:07:53;33.63;;;8.35;;
41261;SDS011;29629;52.532;13.352;2022-08-01T13:10:25;30.20;;;8.20;;
41261;SDS011;29629;52.532;13.352;2022-08-01T13:12:54;35.42;;;8.77;;
41261;SDS011;29629;52.532;13.352;2022-08-01T13:15:25;28.85;;;7.45;;
41261;SDS011;29629;52.532;13.352;2022-08-01T13:17:55;25.00;;;7.13;;
41261;SDS011;29629;52.532;13.352;2022-08-01T13:20:23;31.52;;;7.28;;
41261;SDS011;29629;52.532;13.352;2022-08-01T13:22:55;30.58;;;7.35;;
41261;SDS011;29629;52.532;13.352;2022-08-01T13:25:45;34.42;;;8.65;;
41261;SDS011;29629;52.532;13.352;2022-08-01T13:28:13;31.25;;;7.72;;
41261;SDS011;29629;52.532;13.352;2022-08-01T13:30:51;28.67;;;7.22;;
41261;SDS011;29629;52.532;13.352;2022-08-01T13:33:18;25.85;;;7.20;;
41261;SDS011;29629;52.532;13.352;2022-08-01T13:35:45;26.67;;;6.78;;
41261;SDS011;29629;52.532;13.352;2022-08-01T13:38:12;23.45;;;6.18;;
41261;SDS011;29629;52.532;13.352;2022-08-01T13:40:39;27.80;;;7.75;;
41261;SDS011;29629;52.532;13.352;2022-08-01T13:43:06;25.25;;;6.93;;
41261;SDS011;29629;52.532;13.352;2022-08-01T13:45:33;30.25;;;7.93;;
41261;SDS011;29629;52.532;13.352;2022-08-01T13:48:02;31.65;;;7.40;;
41261;SDS011;29629;52.532;13.352;2022-08-01T13:50:29;30.35;;;7.32;;
41261;SDS011;29629;52.532;13.352;2022-08-01T13:52:56;28.42;;;7.10;;
41261;SDS011;29629;52.532;13.352;2022-08-01T13:55:23;26.65;;;6.40;;
41261;SDS011;29629;52.532;13.352;2022-08-01T13:57:50;21.23;;;6.03;;
41261;SDS011;29629;52.532;13.352;2022-08-01T14:00:18;18.80;;;5.82;;
41261;SDS011;29629;52.532;13.352;2022-08-01T14:02:45;19.58;;;5.97;;
41261;SDS011;29629;52.532;13.352;2022-08-01T14:05:14;14.23;;;4.65;;
41261;SDS011;29629;52.532;13.352;2022-08-01T14:07:41;17.75;;;5.50;;
41261;SDS011;29629;52.532;13.352;2022-08-01T14:10:09;9.75;;;3.90;;
41261;SDS011;29629;52.532;13.352;2022-08-01T14:12:36;17.42;;;5.47;;
41261;SDS011;29629;52.532;13.352;2022-08-01T14:15:03;14.07;;;5.03;;
41261;SDS011;29629;52.532;13.352;2022-08-01T14:17:32;17.65;;;4.95;;
41261;SDS011;29629;52.532;13.352;2022-08-01T14:19:58;24.00;;;6.53;;
41261;SDS011;29629;52.532;13.352;2022-08-01T14:22:27;13.98;;;4.50;;
41261;SDS011;29629;52.532;13.352;2022-08-01T14:24:54;15.18;;;5.28;;
41261;SDS011;29629;52.532;13.352;2022-08-01T14:27:20;13.60;;;4.70;;
41261;SDS011;29629;52.532;13.352;2022-08-01T14:29:47;21.17;;;5.90;;
41261;SDS011;29629;52.532;13.352;2022-08-01T14:32:14;14.60;;;5.03;;
41261;SDS011;29629;52.532;13.352;2022-08-01T14:34:41;27.45;;;7.30;;
41261;SDS011;29629;52.532;13.352;2022-08-01T14:37:08;18.13;;;4.68;;
41261;SDS011;29629;52.532;13.352;2022-08-01T14:39:36;20.92;;;5.90;;